Time;durP1;ratioP1;P1;durP2;ratioP2;P2;SDS_P1;SDS_P2;PMS_P1;PMS_P2;Temp;Humidity;BMP_temperature;BMP_pressure;BME280_temperature;BME280_humidity;BME280_pressure;Samples;Min_cycle;Max_cycle;Signal;HPM_P1;HPM_P2
2022/02/22 00:01:43;;;;;;;26.05;5.47;;;14.50;65.90;;;;;;4159821;28;20057;-66
2022/02/22 00:04:07;;;;;;;25.80;4.60;;;14.50;64.30;;;;;;4160447;28;20049;-67
2022/02/22 00:06:29;;;;;;;21.27;4.75;;;14.50;65.00;;;;;;4160698;28;20057;-66
2022/02/22 00:08:51;;;;;;;24.50;4.70;;;14.40;65.00;;;;;;4160303;28;20053;-67
2022/02/22 00:11:13;;;;;;;18.95;3.78;;;14.40;65.20;;;;;;4160477;28;20053;-66
2022/02/22 00:13:36;;;;;;;21.85;4.40;;;14.40;65.70;;;;;;4160454;28;20153;-67
2022/02/22 00:16:00;;;;;;;19.52;4.30;;;14.40;67.10;;;;;;4160506;28;20048;-66
2022/02/22 00:18:23;;;;;;;27.67;4.90;;;14.40;67.40;;;;;;4159640;28;20060;-66
2022/02/22 00:20:45;;;;;;;24.25;5.63;;;14.50;68.00;;;;;;4160482;28;20057;-67
2022/02/22 00:23:08;;;;;;;29.80;5.20;;;14.50;68.20;;;;;;4159608;28;20053;-67
2022/02/22 00:25:30;;;;;;;24.17;5.00;;;14.60;69.00;;;;;;4160552;28;20045;-66
2022/02/22 00:27:53;;;;;;;16.33;3.65;;;14.60;67.50;;;;;;4160165;28;20113;-67
2022/02/22 00:30:17;;;;;;;25.40;4.88;;;14.60;67.70;;;;;;4158917;28;20046;-66
2022/02/22 00:32:42;;;;;;;25.20;4.72;;;14.60;67.40;;;;;;4159724;28;20061;-67
2022/02/22 00:35:06;;;;;;;27.50;4.07;;;14.70;67.40;;;;;;4159693;28;20081;-66
2022/02/22 00:37:28;;;;;;;25.58;4.88;;;14.70;67.40;;;;;;4159828;28;20745;-67
2022/02/22 00:39:51;;;;;;;29.48;5.50;;;14.70;67.40;;;;;;4143494;28;20054;-67
2022/02/22 00:42:13;;;;;;;26.35;5.10;;;14.70;67.50;;;;;;4143679;28;20133;-67
2022/02/22 00:44:35;;;;;;;31.80;4.60;;;14.70;67.80;;;;;;4143442;28;20384;-67
2022/02/22 00:46:57;;;;;;;25.65;4.90;;;14.70;67.60;;;;;;4153071;28;20053;-67
2022/02/22 00:49:19;;;;;;;24.58;5.30;;;14.70;67.50;;;;;;4159380;28;20115;-67
2022/02/22 00:51:43;;;;;;;18.80;3.97;;;14.70;67.20;;;;;;4159846;28;20040;-68
2022/02/22 00:54:05;;;;;;;23.23;4.57;;;14.70;67.50;;;;;;4158677;28;20080;-68
2022/02/22 00:56:27;;;;;;;28.55;4.90;;;14.70;67.90;;;;;;4159910;28;20073;-67
2022/02/22 00:58:49;;;;;;;18.92;4.32;;;14.70;68.40;;;;;;4159315;28;20077;-67
2022/02/22 01:01:14;;;;;;;18.58;4.18;;;14.80;67.90;;;;;;4159717;28;20049;-67
2022/02/22 01:03:36;;;;;;;19.10;3.83;;;14.80;67.70;;;;;;4159568;28;20056;-67
2022/02/22 01:05:58;;;;;;;20.75;4.50;;;14.90;67.30;;;;;;4159466;28;20045;-68
2022/02/22 01:08:21;;;;;;;27.52;4.47;;;14.90;67.10;;;;;;4159342;28;20444;-66
2022/02/22 01:10:43;;;;;;;19.30;4.30;;;14.90;67.10;;;;;;4159357;28;20053;-67
2022/02/22 01:13:06;;;;;;;18.20;3.70;;;14.90;67.10;;;;;;4157505;28;20465;-66
2022/02/22 01:15:28;;;;;;;18.60;4.00;;;14.90;67.10;;;;;;4159527;28;20046;-66
2022/02/22 01:17:50;;;;;;;20.25;4.32;;;14.90;67.10;;;;;;4159647;28;20135;-66
2022/02/22 01:20:14;;;;;;;24.17;4.80;;;14.90;67.10;;;;;;4159326;28;20493;-67
2022/02/22 01:22:37;;;;;;;23.20;4.45;;;14.90;67.40;;;;;;4159614;28;20046;-67
2022/02/22 01:25:01;;;;;;;20.67;4.13;;;14.90;67.50;;;;;;4160573;28;20132;-66
2022/02/22 01:27:24;;;;;;;19.75;4.15;;;14.90;67.40;;;;;;4159320;28;20045;-66
2022/02/22 01:29:46;;;;;;;29.52;4.85;;;14.90;67.40;;;;;;4143140;28;20058;-66
2022/02/22 01:32:09;;;;;;;21.05;3.72;;;14.90;67.40;;;;;;4143181;28;20053;-66
2022/02/22 01:34:31;;;;;;;24.10;4.50;;;14.90;67.30;;;;;;4154487;28;20168;-66
2022/02/22 01:36:53;;;;;;;20.40;3.22;;;14.90;67.20;;;;;;4159218;28;20123;-67
2022/02/22 01:39:15;;;;;;;20.98;4.40;;;15.00;67.20;;;;;;4159280;28;20512;-67
2022/02/22 01:41:44;;;;;;;20.05;3.78;;;15.00;67.20;;;;;;4159348;28;20053;-66
2022/02/22 01:44:06;;;;;;;21.83;3.80;;;15.00;68.00;;;;;;4157723;28;20053;-66
2022/02/22 01:46:29;;;;;;;28.48;4.90;;;15.10;67.20;;;;;;4158803;28;20105;-67
2022/02/22 01:48:52;;;;;;;19.25;4.32;;;15.10;66.90;;;;;;4158867;28;20053;-67
2022/02/22 01:51:14;;;;;;;13.55;3.70;;;15.20;66.70;;;;;;4158813;28;20136;-66
2022/02/22 01:53:37;;;;;;;24.67;3.50;;;15.30;66.20;;;;;;4159111;28;20052;-66
2022/02/22 01:55:59;;;;;;;18.90;3.78;;;15.30;66.90;;;;;;4157754;28;20068;-66
2022/02/22 01:58:22;;;;;;;17.85;3.20;;;15.30;65.80;;;;;;4157588;28;20586;-66
2022/02/22 02:00:46;;;;;;;17.30;3.53;;;15.30;65.90;;;;;;4159062;28;20045;-68
2022/02/22 02:03:08;;;;;;;21.13;4.45;;;15.30;66.00;;;;;;4158982;28;20045;-66
2022/02/22 02:05:30;;;;;;;19.05;4.13;;;15.30;66.00;;;;;;4158980;28;20409;-66
2022/02/22 02:07:54;;;;;;;17.33;3.28;;;15.30;65.80;;;;;;4159180;28;20076;-67
2022/02/22 02:10:16;;;;;;;14.73;3.30;;;15.30;65.90;;;;;;4158721;28;20065;-66
2022/02/22 02:12:38;;;;;;;15.07;3.08;;;15.30;66.10;;;;;;4158822;28;20750;-66
2022/02/22 02:15:02;;;;;;;14.68;3.65;;;15.20;65.80;;;;;;4159040;28;20386;-66
2022/02/22 02:17:24;;;;;;;16.42;3.72;;;15.20;65.90;;;;;;4158853;28;20049;-66
2022/02/22 02:19:46;;;;;;;16.10;4.18;;;15.20;66.10;;;;;;4159154;28;20398;-66
2022/02/22 02:22:12;;;;;;;22.13;5.03;;;15.10;66.40;;;;;;4158798;28;20049;-66
2022/02/22 02:24:34;;;;;;;17.38;3.78;;;15.10;66.50;;;;;;4159172;28;20052;-67
2022/02/22 02:26:57;;;;;;;17.95;3.75;;;15.10;66.40;;;;;;4161616;28;20136;-67
2022/02/22 02:29:22;;;;;;;17.48;3.63;;;15.20;66.70;;;;;;4161989;28;20148;-67
2022/02/22 02:31:46;;;;;;;19.17;3.85;;;15.20;66.50;;;;;;4145291;28;20076;-67
2022/02/22 02:34:11;;;;;;;20.77;3.65;;;15.10;66.50;;;;;;4145801;28;20049;-67
2022/02/22 02:36:34;;;;;;;20.73;4.53;;;15.10;66.60;;;;;;4156803;28;20239;-67
2022/02/22 02:38:57;;;;;;;21.80;3.72;;;15.10;66.70;;;;;;4161826;28;20111;-68
2022/02/22 02:41:19;;;;;;;26.30;4.68;;;15.10;66.80;;;;;;4161984;28;20545;-68
2022/02/22 02:43:42;;;;;;;19.52;4.78;;;15.20;67.00;;;;;;4161667;28;20041;-67
2022/02/22 02:46:04;;;;;;;16.45;3.67;;;15.20;66.70;;;;;;4161844;28;20045;-68
2022/02/22 02:48:26;;;;;;;23.08;4.05;;;15.20;66.60;;;;;;4161942;28;20037;-67
2022/02/22 02:50:50;;;;;;;27.67;4.82;;;15.20;66.60;;;;;;4160103;28;20056;-67
2022/02/22 02:53:12;;;;;;;26.65;3.83;;;15.20;67.60;;;;;;4161632;28;20045;-67
2022/02/22 02:55:36;;;;;;;25.05;4.55;;;15.20;66.80;;;;;;4161629;28;20136;-67
2022/02/22 02:57:59;;;;;;;20.73;3.90;;;15.10;66.80;;;;;;4161239;28;20129;-67
2022/02/22 03:00:21;;;;;;;21.50;4.20;;;15.10;67.90;;;;;;4161331;28;20057;-67
2022/02/22 03:02:44;;;;;;;24.27;4.25;;;15.10;67.10;;;;;;4161046;28;20061;-66
2022/02/22 03:05:09;;;;;;;19.38;3.63;;;15.10;67.20;;;;;;4161182;28;20045;-67
2022/02/22 03:07:31;;;;;;;24.05;4.78;;;15.10;67.10;;;;;;4161157;28;20045;-66
2022/02/22 03:09:53;;;;;;;23.92;4.90;;;15.10;67.20;;;;;;4161457;28;20041;-67
2022/02/22 03:12:16;;;;;;;29.98;4.80;;;15.10;67.20;;;;;;4161589;28;20214;-67
2022/02/22 03:14:38;;;;;;;20.15;3.78;;;15.10;68.10;;;;;;4161374;28;20049;-67
2022/02/22 03:17:00;;;;;;;27.10;3.88;;;15.00;67.30;;;;;;4161146;28;20045;-67
2022/02/22 03:19:23;;;;;;;19.35;3.85;;;15.00;67.30;;;;;;4161110;28;20055;-67
2022/02/22 03:21:45;;;;;;;19.38;3.78;;;15.00;68.40;;;;;;4160990;28;20477;-66
2022/02/22 03:24:08;;;;;;;16.90;3.75;;;15.00;67.70;;;;;;4161128;28;20498;-67
2022/02/22 03:26:30;;;;;;;21.60;4.20;;;15.10;67.90;;;;;;4160655;28;20057;-66
2022/02/22 03:28:55;;;;;;;18.48;4.68;;;15.20;67.90;;;;;;4161277;28;20068;-66
2022/02/22 03:31:17;;;;;;;18.52;3.90;;;15.30;67.50;;;;;;4160848;28;20493;-66
2022/02/22 03:33:39;;;;;;;17.65;3.75;;;15.40;67.00;;;;;;4161215;28;20409;-66
2022/02/22 03:36:02;;;;;;;15.05;3.55;;;15.50;66.50;;;;;;4160222;28;20494;-66
2022/02/22 03:38:24;;;;;;;20.33;4.32;;;15.60;67.00;;;;;;4161176;28;20111;-66
2022/02/22 03:40:46;;;;;;;14.65;3.67;;;15.60;66.00;;;;;;4160963;28;20057;-66
2022/02/22 03:43:09;;;;;;;17.95;4.15;;;15.60;65.90;;;;;;4161402;28;20046;-67
2022/02/22 03:45:38;;;;;;;21.95;3.97;;;15.60;65.90;;;;;;4161047;28;20207;-68
2022/02/22 03:48:00;;;;;;;23.20;4.95;;;15.60;65.90;;;;;;4160325;28;20046;-67
2022/02/22 03:50:23;;;;;;;18.52;4.32;;;15.50;66.00;;;;;;4160494;28;20048;-68
2022/02/22 03:52:45;;;;;;;28.50;4.25;;;15.50;66.00;;;;;;4160694;28;20060;-67
2022/02/22 03:55:09;;;;;;;22.05;3.85;;;15.50;66.60;;;;;;4160640;28;20049;-68
2022/02/22 03:57:31;;;;;;;16.38;4.65;;;15.50;66.30;;;;;;4160775;28;20448;-67
2022/02/22 03:59:53;;;;;;;14.05;3.22;;;15.40;66.30;;;;;;4160753;28;20477;-68
2022/02/22 04:02:16;;;;;;;22.70;4.07;;;15.40;66.30;;;;;;4144355;28;20124;-67
2022/02/22 04:04:38;;;;;;;15.98;4.15;;;15.40;66.40;;;;;;4143977;28;20056;-68
2022/02/22 04:07:00;;;;;;;22.88;4.65;;;15.40;66.50;;;;;;4144341;28;20546;-67
2022/02/22 04:09:22;;;;;;;15.98;3.88;;;15.40;66.70;;;;;;4156033;28;20048;-67
2022/02/22 04:11:44;;;;;;;22.48;4.80;;;15.40;66.70;;;;;;4160188;28;20116;-67
2022/02/22 04:14:06;;;;;;;18.77;3.80;;;15.40;66.60;;;;;;4160056;28;20049;-67
2022/02/22 04:16:29;;;;;;;21.00;3.88;;;15.40;66.80;;;;;;4145331;28;20049;-67
2022/02/22 04:18:52;;;;;;;23.23;4.75;;;15.40;66.80;;;;;;4157499;28;20084;-67
2022/02/22 04:21:14;;;;;;;23.67;5.05;;;15.50;67.40;;;;;;4160397;28;20045;-68
2022/02/22 04:23:36;;;;;;;18.25;4.07;;;15.50;66.20;;;;;;4160255;28;20134;-67
2022/02/22 04:25:58;;;;;;;16.13;3.92;;;15.60;66.00;;;;;;4160082;28;20138;-67
2022/02/22 04:28:20;;;;;;;23.40;3.90;;;15.60;67.00;;;;;;4160380;28;20051;-67
2022/02/22 04:30:45;;;;;;;17.10;3.83;;;15.60;65.90;;;;;;4159983;28;20141;-67
2022/02/22 04:33:07;;;;;;;19.42;3.60;;;15.60;66.80;;;;;;4160249;28;20052;-67
2022/02/22 04:35:31;;;;;;;23.48;3.85;;;15.60;65.90;;;;;;4160358;28;20454;-66
2022/02/22 04:37:53;;;;;;;22.10;3.53;;;15.60;66.10;;;;;;4160200;28;20107;-66
2022/02/22 04:40:15;;;;;;;23.25;4.53;;;15.60;66.20;;;;;;4160069;28;20465;-66
2022/02/22 04:42:37;;;;;;;22.98;4.18;;;15.50;66.20;;;;;;4160072;28;20073;-66
2022/02/22 04:44:59;;;;;;;20.83;4.47;;;15.50;66.60;;;;;;4158479;28;20099;-66
2022/02/22 04:47:21;;;;;;;19.45;4.43;;;15.60;67.30;;;;;;4159055;28;20049;-67
2022/02/22 04:49:43;;;;;;;26.38;4.38;;;15.60;66.20;;;;;;4150788;28;20504;-67
2022/02/22 04:52:09;;;;;;;21.00;4.15;;;15.60;66.20;;;;;;4159824;28;20049;-67
2022/02/22 04:54:32;;;;;;;17.27;3.90;;;15.60;66.10;;;;;;4159672;28;20050;-66
2022/02/22 04:56:54;;;;;;;16.58;3.53;;;15.60;66.20;;;;;;4159818;28;20413;-66
2022/02/22 04:59:16;;;;;;;15.40;4.05;;;15.60;66.30;;;;;;4159853;28;20049;-67
2022/02/22 05:01:38;;;;;;;22.20;4.68;;;15.70;66.10;;;;;;4159416;28;20048;-67
2022/02/22 05:04:00;;;;;;;20.95;4.50;;;15.70;66.10;;;;;;4159692;28;20055;-67
2022/02/22 05:06:22;;;;;;;13.55;3.72;;;15.70;66.20;;;;;;4159353;28;20049;-67
2022/02/22 05:08:46;;;;;;;20.05;3.50;;;15.80;66.00;;;;;;4159838;28;20051;-66
2022/02/22 05:11:09;;;;;;;19.58;4.10;;;15.80;65.70;;;;;;4159822;28;20041;-67
2022/02/22 05:13:31;;;;;;;17.48;3.83;;;15.90;65.40;;;;;;4159946;28;21449;-67
2022/02/22 05:15:53;;;;;;;20.27;4.05;;;15.90;65.10;;;;;;4159463;28;20047;-67
2022/02/22 05:18:15;;;;;;;21.65;4.57;;;15.90;65.00;;;;;;4159247;28;20528;-66
2022/02/22 05:20:37;;;;;;;19.10;3.78;;;15.80;65.10;;;;;;4159245;28;20540;-66
2022/02/22 05:22:59;;;;;;;22.25;4.45;;;15.80;65.40;;;;;;4159206;28;20107;-68
2022/02/22 05:25:23;;;;;;;16.77;4.90;;;15.80;65.40;;;;;;4159182;28;20084;-67
2022/02/22 05:27:45;;;;;;;18.98;4.15;;;15.80;65.70;;;;;;4159242;28;20053;-66
2022/02/22 05:30:11;;;;;;;18.50;4.20;;;15.70;65.70;;;;;;4159025;28;20552;-67
2022/02/22 05:32:34;;;;;;;19.10;3.80;;;15.70;65.70;;;;;;4159119;28;20045;-66
2022/02/22 05:34:56;;;;;;;17.42;4.03;;;15.70;65.80;;;;;;4158232;28;20038;-67
2022/02/22 05:37:18;;;;;;;20.48;4.03;;;15.70;66.20;;;;;;4159278;28;20494;-65
2022/02/22 05:39:40;;;;;;;20.58;4.00;;;15.60;66.20;;;;;;4159586;28;20065;-67
2022/02/22 05:42:06;;;;;;;17.95;3.80;;;15.60;66.40;;;;;;4159757;28;20474;-68
2022/02/22 05:44:28;;;;;;;16.98;3.67;;;15.60;66.40;;;;;;4158707;28;20563;-65
2022/02/22 05:46:51;;;;;;;19.52;3.95;;;15.60;66.40;;;;;;4159376;28;20076;-67
2022/02/22 05:49:13;;;;;;;23.13;4.75;;;15.70;66.30;;;;;;4159581;28;20052;-65
2022/02/22 05:51:36;;;;;;;13.80;3.17;;;15.70;66.30;;;;;;4159359;28;20056;-65
2022/02/22 05:53:58;;;;;;;19.05;4.20;;;15.60;66.20;;;;;;4159154;28;20056;-66
2022/02/22 05:56:20;;;;;;;17.17;3.78;;;15.60;67.10;;;;;;4159126;28;20052;-65
2022/02/22 05:58:44;;;;;;;20.08;5.10;;;15.70;67.40;;;;;;4159148;28;20057;-66
2022/02/22 06:01:07;;;;;;;21.05;4.07;;;15.70;66.20;;;;;;4145954;28;20502;-67
2022/02/22 06:03:29;;;;;;;18.85;4.18;;;15.80;66.30;;;;;;4146304;28;20556;-65
2022/02/22 06:05:51;;;;;;;19.50;3.60;;;15.80;65.90;;;;;;4146515;28;20053;-65
2022/02/22 06:08:13;;;;;;;17.60;3.60;;;15.80;65.50;;;;;;4154758;28;20073;-67
2022/02/22 06:10:35;;;;;;;19.88;3.80;;;15.80;65.60;;;;;;4162109;28;20038;-68
2022/02/22 06:12:57;;;;;;;24.40;4.63;;;15.80;65.50;;;;;;4162100;28;20055;-67
2022/02/22 06:15:22;;;;;;;18.50;3.70;;;15.80;65.60;;;;;;4162264;28;20045;-67
2022/02/22 06:17:45;;;;;;;24.65;4.88;;;15.80;65.90;;;;;;4162075;28;20056;-67
2022/02/22 06:20:09;;;;;;;16.33;4.15;;;15.70;66.00;;;;;;4162265;28;20472;-67
2022/02/22 06:22:31;;;;;;;15.07;4.75;;;15.70;66.10;;;;;;4162522;28;20049;-68
2022/02/22 06:24:54;;;;;;;24.88;4.75;;;15.70;66.20;;;;;;4162019;28;20050;-67
2022/02/22 06:27:16;;;;;;;24.98;3.97;;;15.60;66.30;;;;;;4146136;28;20410;-67
2022/02/22 06:29:40;;;;;;;20.85;4.20;;;15.60;66.30;;;;;;4145596;28;20041;-66
2022/02/22 06:32:03;;;;;;;20.73;4.45;;;15.60;66.30;;;;;;4152605;28;20049;-67
2022/02/22 06:34:25;;;;;;;18.30;4.47;;;15.60;66.60;;;;;;4162054;28;20501;-67
2022/02/22 06:36:47;;;;;;;17.38;3.17;;;15.50;66.60;;;;;;4161482;28;20049;-66
2022/02/22 06:39:09;;;;;;;20.02;3.75;;;15.50;66.80;;;;;;4161750;28;20045;-66
2022/02/22 06:41:31;;;;;;;22.88;4.85;;;15.60;66.80;;;;;;4161528;28;20422;-66
2022/02/22 06:43:53;;;;;;;15.80;3.83;;;15.60;66.80;;;;;;4162065;28;20045;-65
2022/02/22 06:46:15;;;;;;;15.27;3.40;;;15.60;66.70;;;;;;4161791;28;20776;-66
2022/02/22 06:48:39;;;;;;;18.20;3.50;;;15.70;66.70;;;;;;4161868;28;20134;-66
2022/02/22 06:51:01;;;;;;;18.00;3.80;;;15.70;66.50;;;;;;4161741;28;20476;-65
2022/02/22 06:53:24;;;;;;;19.52;3.60;;;15.80;66.30;;;;;;4161793;28;20115;-66
2022/02/22 06:55:47;;;;;;;21.65;4.15;;;15.90;66.10;;;;;;4161810;28;20148;-69
2022/02/22 06:58:11;;;;;;;14.88;3.50;;;16.00;65.90;;;;;;4161398;28;20493;-67
2022/02/22 07:00:35;;;;;;;14.23;3.85;;;16.00;65.60;;;;;;4161643;28;20133;-67
2022/02/22 07:02:57;;;;;;;25.67;5.53;;;16.00;65.60;;;;;;4161678;28;20057;-67
2022/02/22 07:05:20;;;;;;;22.45;4.13;;;16.00;65.50;;;;;;4161490;28;20057;-66
2022/02/22 07:07:47;;;;;;;25.25;5.22;;;15.90;65.60;;;;;;4161493;28;20118;-67
2022/02/22 07:10:10;;;;;;;19.58;4.10;;;15.90;65.80;;;;;;4161547;28;20501;-66
2022/02/22 07:12:32;;;;;;;19.83;4.05;;;15.80;65.80;;;;;;4159218;28;20389;-66
2022/02/22 07:14:55;;;;;;;20.10;3.88;;;15.80;66.00;;;;;;4161649;28;20433;-66
2022/02/22 07:17:17;;;;;;;21.20;4.95;;;15.80;66.10;;;;;;4161081;28;20398;-66
2022/02/22 07:19:39;;;;;;;25.70;4.25;;;15.70;66.40;;;;;;4161189;28;20503;-66
2022/02/22 07:22:01;;;;;;;20.23;4.13;;;15.70;66.20;;;;;;4161558;28;20115;-66
2022/02/22 07:24:23;;;;;;;20.45;3.90;;;15.70;66.40;;;;;;4161046;28;20045;-68
2022/02/22 07:26:45;;;;;;;15.50;3.72;;;15.60;66.60;;;;;;4160992;28;20041;-66
2022/02/22 07:29:08;;;;;;;24.30;3.88;;;15.60;66.60;;;;;;4160763;28;20132;-65
2022/02/22 07:31:31;;;;;;;23.63;4.28;;;15.60;66.80;;;;;;4161040;28;20107;-65
2022/02/22 07:33:54;;;;;;;18.95;4.75;;;15.50;66.80;;;;;;4161207;28;20480;-65
2022/02/22 07:36:16;;;;;;;21.88;3.83;;;15.50;67.20;;;;;;4161599;28;20493;-65
2022/02/22 07:38:38;;;;;;;16.80;3.67;;;15.50;67.60;;;;;;4160963;28;20127;-66
2022/02/22 07:41:01;;;;;;;29.00;4.57;;;15.60;67.30;;;;;;4160654;28;20103;-66
2022/02/22 07:43:25;;;;;;;22.58;5.35;;;15.70;67.00;;;;;;4159338;28;20251;-66
2022/02/22 07:45:48;;;;;;;25.50;4.18;;;15.70;66.70;;;;;;4161034;28;20049;-66
2022/02/22 07:48:11;;;;;;;27.75;4.50;;;15.70;66.40;;;;;;4160498;28;20100;-65
2022/02/22 07:50:35;;;;;;;31.33;5.50;;;15.80;66.20;;;;;;4160706;28;20049;-65
2022/02/22 07:52:58;;;;;;;19.27;4.22;;;15.80;66.10;;;;;;4157823;28;20045;-65
2022/02/22 07:55:20;;;;;;;26.33;3.72;;;15.80;66.00;;;;;;4159743;28;20053;-65
2022/02/22 07:57:43;;;;;;;27.75;4.78;;;15.80;66.00;;;;;;4160342;28;20154;-65
2022/02/22 08:00:08;;;;;;;23.45;4.88;;;15.80;66.10;;;;;;4158529;28;20469;-65
2022/02/22 08:02:30;;;;;;;23.52;3.95;;;15.70;66.20;;;;;;4160611;28;20179;-65
2022/02/22 08:04:53;;;;;;;25.67;4.72;;;15.70;66.20;;;;;;4160412;28;20493;-65
2022/02/22 08:07:20;;;;;;;23.63;4.47;;;15.60;67.00;;;;;;4158827;28;20413;-66
2022/02/22 08:09:45;;;;;;;20.85;4.70;;;15.60;66.40;;;;;;4160838;28;20056;-66
2022/02/22 08:12:08;;;;;;;20.15;4.13;;;15.60;66.80;;;;;;4160175;28;20046;-67
2022/02/22 08:14:30;;;;;;;21.02;3.50;;;15.50;66.80;;;;;;4160439;28;20069;-67
2022/02/22 08:16:57;;;;;;;19.25;3.90;;;15.50;66.90;;;;;;4160422;28;20064;-67
2022/02/22 08:19:20;;;;;;;29.33;4.43;;;15.50;67.10;;;;;;4159536;28;20056;-67
2022/02/22 08:21:43;;;;;;;25.17;4.18;;;15.50;66.90;;;;;;4159911;28;20060;-67
2022/02/22 08:24:06;;;;;;;22.17;3.72;;;15.50;66.80;;;;;;4159316;28;20579;-66
2022/02/22 08:26:31;;;;;;;26.02;4.22;;;15.60;66.90;;;;;;4159342;28;20181;-67
2022/02/22 08:28:53;;;;;;;18.98;4.47;;;15.70;66.80;;;;;;4160123;28;20056;-67
2022/02/22 08:31:16;;;;;;;17.67;3.92;;;15.90;66.40;;;;;;4160325;28;20041;-68
2022/02/22 08:33:38;;;;;;;18.13;4.25;;;16.00;65.60;;;;;;4159741;28;20048;-66
2022/02/22 08:36:00;;;;;;;21.85;3.70;;;16.20;65.00;;;;;;4160132;28;20046;-66
2022/02/22 08:38:24;;;;;;;19.58;3.72;;;16.20;64.40;;;;;;4159733;28;20389;-66
2022/02/22 08:40:46;;;;;;;13.02;3.95;;;16.20;64.40;;;;;;4159932;28;20541;-66
2022/02/22 08:43:09;;;;;;;21.65;3.95;;;16.30;64.30;;;;;;4159815;28;20056;-67
2022/02/22 08:45:32;;;;;;;18.38;4.28;;;16.30;64.50;;;;;;4143731;28;20401;-67
2022/02/22 08:47:56;;;;;;;23.38;3.88;;;16.20;64.30;;;;;;4162177;28;20091;-67
2022/02/22 08:50:18;;;;;;;18.77;4.10;;;16.20;64.30;;;;;;4192865;28;20135;-66
2022/02/22 08:52:40;;;;;;;18.20;4.40;;;16.10;64.70;;;;;;4178685;28;20045;-66
2022/02/22 08:55:04;;;;;;;15.50;3.55;;;16.10;64.70;;;;;;4159411;28;20118;-68
2022/02/22 08:57:27;;;;;;;21.02;3.78;;;16.10;64.60;;;;;;4159780;28;20148;-68
2022/02/22 08:59:50;;;;;;;17.88;3.58;;;16.10;64.60;;;;;;4158975;28;20588;-68
2022/02/22 09:02:13;;;;;;;19.20;3.50;;;16.10;64.50;;;;;;4159909;28;20076;-68
2022/02/22 09:04:35;;;;;;;21.48;3.78;;;16.10;64.50;;;;;;4154429;28;20050;-68
2022/02/22 09:06:57;;;;;;;20.48;3.70;;;16.00;64.70;;;;;;4145185;28;20050;-67
2022/02/22 09:09:19;;;;;;;21.58;3.78;;;16.00;64.80;;;;;;4141110;28;20053;-67
2022/02/22 09:11:43;;;;;;;23.08;5.40;;;16.00;64.90;;;;;;4142003;28;20046;-67
2022/02/22 09:14:05;;;;;;;21.45;4.97;;;15.90;65.00;;;;;;4141330;28;20378;-67
2022/02/22 09:16:28;;;;;;;17.30;4.35;;;16.00;65.30;;;;;;4171740;28;20544;-67
2022/02/22 09:18:50;;;;;;;11.23;3.25;;;16.00;65.20;;;;;;4173489;28;20056;-67
2022/02/22 09:21:12;;;;;;;18.02;4.05;;;16.00;64.90;;;;;;4160241;28;20060;-67
2022/02/22 09:23:35;;;;;;;20.65;4.20;;;16.10;64.60;;;;;;4171186;28;20051;-66
2022/02/22 09:25:57;;;;;;;18.95;3.60;;;16.10;64.70;;;;;;4156231;28;20408;-65
2022/02/22 09:28:21;;;;;;;18.95;3.13;;;16.10;64.80;;;;;;4158897;28;20045;-65
2022/02/22 09:30:43;;;;;;;22.33;4.20;;;16.10;64.70;;;;;;4172634;28;20052;-66
2022/02/22 09:33:08;;;;;;;22.40;3.92;;;16.10;64.40;;;;;;4157259;28;20084;-65
2022/02/22 09:35:31;;;;;;;14.77;3.80;;;16.10;64.20;;;;;;4172630;28;20048;-65
2022/02/22 09:37:54;;;;;;;18.33;4.43;;;16.10;64.00;;;;;;4173280;28;20056;-65
2022/02/22 09:40:16;;;;;;;18.55;4.13;;;16.10;63.60;;;;;;4173235;28;20083;-65
2022/02/22 09:42:39;;;;;;;17.85;3.20;;;16.10;63.30;;;;;;4172817;28;20546;-65
2022/02/22 09:45:06;;;;;;;12.73;2.72;;;16.10;63.00;;;;;;4161678;28;20054;-65
2022/02/22 09:47:29;;;;;;;12.32;2.20;;;16.10;63.00;;;;;;4173073;28;20048;-68
2022/02/22 09:49:51;;;;;;;17.45;3.58;;;16.10;62.70;;;;;;4157300;28;20118;-68
2022/02/22 09:52:13;;;;;;;16.58;4.45;;;16.10;62.40;;;;;;4171064;28;20988;-68
2022/02/22 09:54:36;;;;;;;15.77;3.78;;;16.10;62.10;;;;;;4157359;28;20045;-68
2022/02/22 09:56:58;;;;;;;12.18;2.60;;;16.10;61.90;;;;;;4168419;28;20045;-66
2022/02/22 09:59:22;;;;;;;17.10;3.65;;;16.00;61.70;;;;;;4167592;28;20547;-68
2022/02/22 10:01:53;;;;;;;14.38;3.00;;;16.00;61.60;;;;;;4157210;28;20456;-68
2022/02/22 10:04:15;;;;;;;15.13;3.38;;;16.00;61.40;;;;;;4172740;28;20049;-67
2022/02/22 10:06:38;;;;;;;14.88;3.28;;;16.10;61.20;;;;;;4169643;28;20056;-67
2022/02/22 10:09:00;;;;;;;8.07;2.75;;;16.10;60.60;;;;;;4172369;28;20041;-67
2022/02/22 10:11:23;;;;;;;11.82;2.22;;;16.30;60.20;;;;;;4172629;28;20384;-67
2022/02/22 10:13:47;;;;;;;18.75;3.22;;;16.30;59.80;;;;;;4160060;28;20049;-68
2022/02/22 10:16:12;;;;;;;8.88;1.98;;;16.30;59.60;;;;;;4160792;28;20140;-66
2022/02/22 10:18:45;;;;;;;15.60;3.78;;;16.30;59.50;;;;;;4156855;28;20076;-68
2022/02/22 10:21:08;;;;;;;14.35;2.78;;;16.20;59.50;;;;;;4169512;28;20049;-67
2022/02/22 10:23:31;;;;;;;16.25;2.92;;;16.20;59.50;;;;;;4172828;28;20141;-67
2022/02/22 10:25:56;;;;;;;13.50;2.58;;;16.20;59.40;;;;;;4172779;28;20045;-66
2022/02/22 10:28:19;;;;;;;14.38;3.63;;;16.20;59.20;;;;;;4160243;28;20053;-65
2022/02/22 10:30:44;;;;;;;19.08;3.88;;;16.20;59.20;;;;;;4167553;28;20049;-66
2022/02/22 10:33:13;;;;;;;17.35;3.72;;;16.20;59.10;;;;;;4169214;28;20509;-66
2022/02/22 10:35:37;;;;;;;17.95;4.25;;;16.10;59.20;;;;;;4170554;28;20132;-65
2022/02/22 10:38:01;;;;;;;17.73;3.85;;;16.20;59.20;;;;;;4168339;28;20053;-66
2022/02/22 10:40:29;;;;;;;12.95;3.28;;;16.20;59.20;;;;;;4165628;28;20134;-65
2022/02/22 10:42:51;;;;;;;15.20;4.55;;;16.20;59.20;;;;;;4163710;28;20064;-66
2022/02/22 10:45:14;;;;;;;20.83;5.00;;;16.20;59.20;;;;;;4163151;28;20056;-66
2022/02/22 10:47:40;;;;;;;15.48;3.80;;;16.20;59.20;;;;;;4168047;28;20138;-66
2022/02/22 10:50:06;;;;;;;15.50;4.45;;;16.20;59.30;;;;;;4160931;28;20060;-66
2022/02/22 10:52:32;;;;;;;17.50;4.35;;;16.20;59.40;;;;;;4164039;28;20045;-66
2022/02/22 10:54:58;;;;;;;17.33;4.45;;;16.10;59.50;;;;;;4159924;28;20516;-67
2022/02/22 10:57:24;;;;;;;20.42;4.22;;;16.20;59.60;;;;;;4166619;28;20053;-66
2022/02/22 10:59:48;;;;;;;20.23;4.40;;;16.20;59.40;;;;;;4165696;28;20156;-67
2022/02/22 11:02:11;;;;;;;17.70;5.25;;;16.30;59.10;;;;;;4168192;28;20057;-66
2022/02/22 11:04:34;;;;;;;22.63;4.43;;;16.40;59.00;;;;;;4168320;28;20128;-65
2022/02/22 11:06:58;;;;;;;23.98;5.57;;;16.40;58.90;;;;;;4170741;28;20508;-65
2022/02/22 11:09:24;;;;;;;25.35;4.90;;;16.30;59.50;;;;;;4163651;28;20127;-63
2022/02/22 11:11:50;;;;;;;18.70;4.53;;;16.30;58.90;;;;;;4164790;28;20128;-64
2022/02/22 11:14:17;;;;;;;19.35;3.60;;;16.30;59.10;;;;;;4174111;28;20077;-64
2022/02/22 11:16:41;;;;;;;13.60;3.35;;;16.20;59.20;;;;;;4170081;28;20119;-65
2022/02/22 11:19:14;;;;;;;15.32;3.80;;;16.20;59.20;;;;;;4162673;28;20060;-66
2022/02/22 11:21:36;;;;;;;12.18;3.50;;;16.20;59.40;;;;;;4163606;28;20140;-66
2022/02/22 11:24:03;;;;;;;20.88;5.65;;;16.10;59.50;;;;;;4160252;28;20065;-65
2022/02/22 11:26:27;;;;;;;16.52;4.18;;;16.10;59.60;;;;;;4161765;28;20054;-66
2022/02/22 11:28:51;;;;;;;25.58;5.28;;;16.10;59.60;;;;;;4162775;28;20049;-66
2022/02/22 11:31:17;;;;;;;22.30;4.57;;;16.20;59.50;;;;;;4162274;28;20049;-66
2022/02/22 11:33:47;;;;;;;17.15;4.47;;;16.10;59.40;;;;;;4169390;28;20045;-66
2022/02/22 11:36:09;;;;;;;18.63;4.20;;;16.20;59.30;;;;;;4163467;28;20135;-67
2022/02/22 11:38:40;;;;;;;14.70;4.47;;;16.10;59.30;;;;;;4165242;28;20090;-66
2022/02/22 11:41:25;;;;;;;27.65;5.20;;;16.10;59.30;;;;;;4172945;28;20119;-66
2022/02/22 11:43:58;;;;;;;20.80;3.92;;;16.10;60.30;;;;;;4167237;28;20077;-66
2022/02/22 11:46:21;;;;;;;16.50;3.80;;;16.00;59.60;;;;;;4159196;28;20496;-66
2022/02/22 11:48:44;;;;;;;23.88;4.38;;;16.00;59.90;;;;;;4171071;28;21072;-66
2022/02/22 11:51:12;;;;;;;18.17;3.50;;;16.00;59.90;;;;;;4168938;28;20853;-66
2022/02/22 11:53:38;;;;;;;23.77;3.90;;;16.10;59.70;;;;;;4161476;28;20059;-67
2022/02/22 11:56:01;;;;;;;20.23;3.90;;;16.20;59.30;;;;;;4165548;28;20535;-66
2022/02/22 11:58:25;;;;;;;38.33;4.90;;;16.30;59.10;;;;;;4166186;28;20076;-66
2022/02/22 12:00:51;;;;;;;23.10;4.68;;;16.40;59.00;;;;;;4162116;28;20140;-66
2022/02/22 12:03:15;;;;;;;15.50;3.45;;;16.40;58.80;;;;;;4165107;28;20049;-66
2022/02/22 12:05:40;;;;;;;52.35;6.78;;;16.40;58.80;;;;;;4172055;28;20493;-67
2022/02/22 12:08:07;;;;;;;27.17;6.00;;;16.30;58.80;;;;;;4161080;28;20050;-67
2022/02/22 12:10:31;;;;;;;14.75;3.75;;;16.30;58.90;;;;;;4167149;28;20136;-67
2022/02/22 12:13:06;;;;;;;16.40;3.15;;;16.30;59.00;;;;;;4162967;28;20861;-66
2022/02/22 12:15:32;;;;;;;22.77;4.25;;;16.20;59.00;;;;;;4161566;28;20045;-67